EST,Max TemperatureF,Mean TemperatureF,Min TemperatureF,Max Dew PointF,MeanDew PointF,Min DewpointF,Max Humidity, Mean Humidity, Min Humidity, Max Sea Level PressureIn, Mean Sea Level PressureIn, Min Sea Level PressureIn, Max VisibilityMiles, Mean VisibilityMiles, Min VisibilityMiles, Max Wind SpeedMPH, Mean Wind SpeedMPH, Max Gust SpeedMPH,PrecipitationIn, CloudCover, Events, WindDirDegrees
2012-12-1,80,66,53,64,58,53,99,80,48,30.27,30.22,30.18,10,10,10,15,8,,0.00,0,,69
2012-12-2,82,70,58,65,61,55,100,79,39,30.29,30.24,30.19,10,10,10,13,8,,0.00,1,,80
2012-12-3,81,72,61,67,62,56,99,78,43,30.29,30.24,30.19,10,10,10,12,7,,0.00,4,,84
2012-12-4,82,70,57,61,58,50,99,73,35,30.30,30.23,30.19,10,10,10,9,7,,0.00,1,,100
2012-12-5,81,68,55,65,60,54,99,78,42,30.19,30.12,30.05,10,10,10,10,6,,0.00,2,,47
2012-12-6,83,73,63,66,64,62,100,80,50,30.06,30.00,29.94,10,10,10,10,7,,0.00,3,,89
2012-12-7,79,70,61,68,64,61,100,96,67,30.03,29.98,29.94,10,5,0,12,8,,0.00,5,Fog,69
2012-12-8,82,74,65,71,67,65,100,96,67,30.07,30.01,29.97,10,6,1,10,7,,0.00,6,Rain,110
2012-12-9,81,71,61,73,66,61,100,98,73,30.11,30.06,30.03,10,2,0,7,1,,0.00,4,Fog,311
2012-12-10,78,68,59,75,64,59,100,98,69,30.05,29.96,29.87,10,4,0,15,2,37,0.41,3,Fog-Rain-Thunderstorm,284
2012-12-11,76,70,64,76,69,64,100,100,91,30.04,29.95,29.90,10,5,0,12,4,,0.03,3,Fog-Rain,246
2012-12-12,82,75,68,75,71,68,100,97,75,30.10,30.04,30.00,10,9,4,12,3,,0.01,5,Rain,265
2012-12-13,73,64,55,68,62,54,100,90,60,30.22,30.14,30.08,10,10,7,17,9,22,0.00,7,,20
2012-12-14,70,62,54,60,56,53,100,90,69,30.24,30.19,30.13,10,10,10,15,9,17,0.00,5,,49
2012-12-15,78,66,53,68,59,54,100,96,65,30.17,30.12,30.06,10,5,0,13,7,,0.00,4,Fog,78
2012-12-16,80,68,57,69,62,58,100,94,58,30.07,30.04,29.97,10,6,0,7,3,,0.00,0,Fog,164
2012-12-17,79,70,60,72,68,60,100,94,77,30.00,29.94,29.90,10,10,10,17,5,,0.01,1,,260
2012-12-18,81,68,51,74,67,49,100,95,66,30.05,29.94,29.91,10,5,0,10,5,,0.01,1,Fog,303
2012-12-19,79,63,47,53,48,40,99,72,26,30.13,30.08,30.05,10,10,10,10,4,,0.00,0,,56
2012-12-20,81,66,50,72,68,49,100,96,70,30.09,30.00,29.96,10,7,1,24,11,32,0.72,3,Rain-Thunderstorm,275
2012-12-21,68,60,53,68,47,38,100,65,50,30.23,30.13,30.00,10,10,10,21,14,32,0.04,1,,359
2012-12-22,61,50,39,40,34,27,87,56,27,30.33,30.26,30.22,10,10,10,13,9,22,0.00,0,,10
2012-12-23,66,51,36,45,38,31,98,66,28,30.28,30.22,30.16,10,10,10,9,5,,0.00,2,,77
2012-12-24,64,57,50,59,52,42,90,80,71,30.15,30.11,30.06,10,10,10,14,4,21,0.00,3,Rain,184
2012-12-25,,,,,,,,,,,,,10,10,10,10,4,,0.00,0,,221
2012-12-26,75,67,55,70,64,46,100,87,63,30.04,29.87,29.83,10,8,0,23,11,30,0.34,5,Fog-Rain-Thunderstorm,315
2012-12-27,62,52,43,49,45,41,98,74,56,30.11,30.07,30.04,10,10,10,12,6,,0.00,0,,38
2012-12-28,72,56,40,65,59,40,100,95,49,30.11,30.00,29.94,10,7,2,12,5,,0.83,6,Rain,122
2012-12-29,73,64,54,72,66,49,100,96,75,30.19,29.97,29.88,10,6,0,22,13,25,0.23,6,Fog-Rain,253
2012-12-30,58,48,39,46,38,33,92,70,43,30.38,30.31,30.20,10,10,10,15,11,25,0.00,1,,48
2012-12-31,74,59,44,58,52,43,100,88,54,30.37,30.26,30.21,10,7,3,12,5,,0.00,0,,48